Paguate, New Mexico
Current Conditions -  °F | °C
As of 4:17 PM on Thursday 27 Nov 2014 (Local Time) from KGNT Reporting Station
Clear Clear  
Wind Chill: 63°   Ceiling: Unl
Heat Index: 63°   Visibility: 10mi
Dew Point:   Wind: 0mph
Humidity: 12%   Direction: NA
Pressure: 30.37"   Gusts: NA
Location:  35.14°N, 107.38°W
Report Text: KGNT 272317Z AUTO 00000KT 10SM CLR 17/M13 A3037 RMK AO2
Loading
Personal Weather Stations






























Interactive Weather Map New forecast layout! Learn more

10-Day Weather Forecast

Advertisements
Track Severe Weather on mobile